Time;durP1;ratioP1;P1;durP2;ratioP2;P2;SDS_P1;SDS_P2;PMS_P1;PMS_P2;Temp;Humidity;BMP_temperature;BMP_pressure;BME280_temperature;BME280_humidity;BME280_pressure;Samples;Min_cycle;Max_cycle;Signal;HPM_P1;HPM_P2
2022/04/07 00:00:38;;;;;;;9.98;4.78;;;;;;;7.30;72.77;96354.00;5021374;28;20385;-59
2022/04/07 00:03:05;;;;;;;8.43;5.22;;;;;;;6.65;73.41;96245.03;5023268;28;20061;-64
2022/04/07 00:05:31;;;;;;;10.80;5.25;;;;;;;6.75;73.19;96265.66;5022412;28;20053;-61
2022/04/07 00:07:58;;;;;;;8.80;5.28;;;;;;;7.22;73.32;96341.25;5023335;28;20529;-55
2022/04/07 00:10:25;;;;;;;9.77;5.07;;;;;;;7.21;73.49;96339.66;5021664;28;20065;-61
2022/04/07 00:12:51;;;;;;;14.75;5.07;;;;;;;7.11;73.70;96342.22;5023617;28;20053;-63
2022/04/07 00:15:18;;;;;;;12.48;5.32;;;;;;;6.90;73.29;96306.03;5024368;28;20049;-55
2022/04/07 00:17:45;;;;;;;11.40;5.30;;;;;;;6.96;74.03;96330.16;5025388;28;20061;-62
2022/04/07 00:20:11;;;;;;;9.45;5.20;;;;;;;6.90;74.38;96326.09;5008670;28;20053;-55
2022/04/07 00:22:39;;;;;;;11.15;5.10;;;;;;;6.88;74.63;96336.66;5006755;28;20421;-57
2022/04/07 00:25:11;;;;;;;10.73;4.43;;;;;;;6.50;74.60;96280.84;5006304;28;20576;-64
2022/04/07 00:27:37;;;;;;;10.40;5.82;;;;;;;6.74;74.46;96325.38;5006788;28;20137;-61
2022/04/07 00:30:05;;;;;;;11.90;6.03;;;;;;;6.73;74.10;96323.81;5005050;28;20062;-59
2022/04/07 00:32:32;;;;;;;7.72;5.60;;;;;;;6.17;74.67;96240.13;5006458;28;20061;-57
2022/04/07 00:34:58;;;;;;;11.57;6.15;;;;;;;6.70;75.24;96318.22;5006426;28;20053;-59
2022/04/07 00:37:25;;;;;;;12.38;6.57;;;;;;;6.28;75.41;96251.31;5006172;28;20054;-56
2022/04/07 00:39:52;;;;;;;11.05;5.63;;;;;;;6.76;74.85;96301.06;5005946;28;20057;-63
2022/04/07 00:42:19;;;;;;;15.07;5.90;;;;;;;6.01;75.74;96215.44;5006922;28;20335;-57
2022/04/07 00:44:45;;;;;;;8.27;4.80;;;;;;;6.62;75.87;96300.78;5006367;28;20065;-62
2022/04/07 00:47:12;;;;;;;8.52;5.38;;;;;;;6.46;75.56;96258.81;5006450;28;20073;-62
2022/04/07 00:49:39;;;;;;;9.85;5.22;;;;;;;6.32;76.17;96255.78;5006364;28;20053;-62
2022/04/07 00:52:07;;;;;;;8.32;5.03;;;;;;;6.50;77.29;96292.66;5005990;28;20580;-58
2022/04/07 00:54:34;;;;;;;8.05;4.68;;;;;;;6.33;76.80;96268.34;5006075;28;20564;-56
2022/04/07 00:57:01;;;;;;;8.75;5.25;;;;;;;6.11;77.32;96241.56;5004654;28;20112;-62
2022/04/07 00:59:28;;;;;;;8.25;5.10;;;;;;;6.43;77.40;96295.28;5006416;28;20084;-58
2022/04/07 01:01:55;;;;;;;9.30;5.28;;;;;;;6.28;78.97;96290.63;5005826;28;20050;-62
2022/04/07 01:04:22;;;;;;;8.10;5.00;;;;;;;6.34;78.59;96289.19;5004835;28;20133;-61
2022/04/07 01:06:50;;;;;;;12.52;5.78;;;;;;;6.25;78.77;96291.34;5005728;28;20053;-63
2022/04/07 01:09:18;;;;;;;8.68;5.13;;;;;;;6.15;79.08;96286.41;5004697;28;20057;-57
2022/04/07 01:11:45;;;;;;;9.30;4.65;;;;;;;6.16;79.02;96288.03;5006012;28;20062;-58
2022/04/07 01:14:13;;;;;;;8.32;4.85;;;;;;;5.69;80.48;96208.44;5004869;28;20181;-58
2022/04/07 01:16:40;;;;;;;9.13;5.18;;;;;;;6.00;80.78;96270.78;5004582;28;20062;-56
2022/04/07 01:19:07;;;;;;;9.45;5.25;;;;;;;5.70;80.18;96203.75;5014730;28;20111;-62
2022/04/07 01:21:35;;;;;;;10.52;4.97;;;;;;;6.17;80.19;96270.38;5025291;28;20045;-56
2022/04/07 01:24:07;;;;;;;11.77;5.75;;;;;;;6.19;78.89;96270.81;5025405;28;20492;-58
2022/04/07 01:26:42;;;;;;;10.30;5.15;;;;;;;5.86;77.67;96229.25;5024176;28;20057;-62
2022/04/07 01:29:14;;;;;;;8.65;5.03;;;;;;;5.47;78.54;96211.88;5025040;28;20057;-62
2022/04/07 01:31:42;;;;;;;10.80;5.78;;;;;;;6.09;78.49;96293.34;5025057;28;20056;-62
2022/04/07 01:34:17;;;;;;;12.88;6.18;;;;;;;3.92;79.30;95946.06;5023425;28;20490;-62
2022/04/07 01:36:47;;;;;;;11.48;6.97;;;;;;;6.05;80.38;96281.50;5025113;28;20061;-62
2022/04/07 01:39:18;;;;;;;13.55;7.88;;;;;;;5.47;80.49;96195.38;5024313;28;20057;-62
2022/04/07 01:41:44;;;;;;;11.68;6.28;;;;;;;6.16;80.71;96266.03;5022601;28;20425;-62
2022/04/07 01:44:12;;;;;;;11.98;6.50;;;;;;;6.09;79.50;96269.44;5024364;28;20060;-58
2022/04/07 01:46:39;;;;;;;11.32;5.72;;;;;;;6.08;79.12;96267.03;5023619;28;20053;-62
2022/04/07 01:49:07;;;;;;;13.65;6.43;;;;;;;6.07;79.20;96260.72;5023809;28;20054;-56
2022/04/07 01:51:37;;;;;;;15.25;6.82;;;;;;;5.47;78.39;96156.16;5023928;28;20414;-62
2022/04/07 01:54:04;;;;;;;10.73;6.63;;;;;;;6.11;79.03;96247.06;5022678;28;20053;-62
2022/04/07 01:56:31;;;;;;;16.50;8.02;;;;;;;6.08;79.94;96232.09;5023756;28;20053;-62
2022/04/07 01:58:58;;;;;;;18.85;9.18;;;;;;;6.07;79.22;96243.44;5022596;28;20050;-57
2022/04/07 02:01:25;;;;;;;24.05;10.40;;;;;;;6.09;79.04;96239.19;5023740;28;20115;-62
2022/04/07 02:03:51;;;;;;;35.42;13.40;;;;;;;6.06;78.19;96233.59;5023764;28;20050;-57
2022/04/07 02:06:19;;;;;;;26.13;11.52;;;;;;;5.99;78.62;96211.50;5022132;28;20851;-56
2022/04/07 02:08:46;;;;;;;17.92;8.48;;;;;;;6.15;79.16;96231.44;5023725;28;20110;-57
2022/04/07 02:11:13;;;;;;;13.75;7.32;;;;;;;6.10;79.96;96218.00;5023872;28;20051;-62
2022/04/07 02:13:40;;;;;;;14.85;7.38;;;;;;;5.45;80.27;96103.53;5023876;28;20057;-62
2022/04/07 02:16:09;;;;;;;13.43;7.50;;;;;;;6.04;79.88;96200.19;5023452;28;20420;-57
2022/04/07 02:18:37;;;;;;;9.90;6.15;;;;;;;6.19;79.05;96202.06;5018074;28;20054;-56
2022/04/07 02:21:05;;;;;;;10.10;5.95;;;;;;;5.31;79.49;96092.25;5003842;28;20100;-62
2022/04/07 02:23:34;;;;;;;10.07;5.88;;;;;;;5.63;80.36;96138.47;5002219;28;20050;-63
2022/04/07 02:26:01;;;;;;;9.75;5.95;;;;;;;5.94;80.38;96176.03;5002237;28;20497;-63
2022/04/07 02:28:27;;;;;;;9.27;5.88;;;;;;;5.93;80.80;96166.19;5002580;28;20081;-62
2022/04/07 02:30:54;;;;;;;11.25;6.75;;;;;;;5.90;81.09;96169.66;5004293;28;20267;-63
2022/04/07 02:33:21;;;;;;;14.73;6.25;;;;;;;5.87;81.19;96148.41;5003980;28;20611;-57
2022/04/07 02:35:47;;;;;;;10.85;6.53;;;;;;;5.51;81.30;96071.88;5003433;28;20057;-63
2022/04/07 02:38:14;;;;;;;11.80;6.40;;;;;;;5.82;81.60;96134.94;4963610;28;1131927;-62
2022/04/07 02:40:41;;;;;;;14.55;7.10;;;;;;;5.35;81.74;96060.19;5004330;28;20445;-57
2022/04/07 02:43:07;;;;;;;15.05;6.55;;;;;;;5.83;81.74;96117.31;5003014;28;20057;-60
2022/04/07 02:45:34;;;;;;;14.38;7.35;;;;;;;5.91;82.55;96132.78;5002404;28;20050;-57
2022/04/07 02:48:01;;;;;;;15.35;8.13;;;;;;;5.89;82.57;96137.84;5004808;28;20057;-63
2022/04/07 02:50:28;;;;;;;12.48;7.57;;;;;;;5.91;82.59;96132.78;5004186;28;20054;-56
2022/04/07 02:52:54;;;;;;;13.88;7.40;;;;;;;5.45;82.42;96048.63;5003875;28;20057;-57
2022/04/07 02:55:22;;;;;;;14.45;7.72;;;;;;;5.22;82.81;96004.63;5002846;28;20571;-62
2022/04/07 02:57:48;;;;;;;13.30;7.18;;;;;;;5.99;82.22;96118.03;5002652;28;20058;-62
2022/04/07 03:00:15;;;;;;;14.52;7.20;;;;;;;5.94;82.01;96121.06;5003713;28;20058;-57
2022/04/07 03:02:42;;;;;;;16.73;7.72;;;;;;;5.52;82.34;96059.75;5002763;28;20064;-57
2022/04/07 03:05:09;;;;;;;11.77;7.30;;;;;;;5.91;82.71;96102.56;5004022;28;20046;-59
2022/04/07 03:07:36;;;;;;;9.95;7.22;;;;;;;5.90;82.59;96120.19;5004080;28;20259;-57
2022/04/07 03:10:03;;;;;;;12.50;5.82;;;;;;;5.44;81.56;96085.47;5004564;28;20776;-56
2022/04/07 03:12:30;;;;;;;18.17;6.25;;;;;;;5.19;83.91;96092.38;5003584;28;20050;-57
2022/04/07 03:14:56;;;;;;;10.55;6.47;;;;;;;2.22;85.11;95619.44;5003572;28;20057;-57
2022/04/07 03:17:23;;;;;;;11.30;7.20;;;;;;;5.37;86.90;96110.03;5004197;28;20054;-57
2022/04/07 03:19:50;;;;;;;10.57;6.57;;;;;;;5.46;87.37;96118.84;5001966;28;20054;-62
2022/04/07 03:22:18;;;;;;;11.55;6.85;;;;;;;5.63;86.03;96126.66;5003997;28;20468;-63
2022/04/07 03:24:46;;;;;;;13.18;6.97;;;;;;;5.64;85.99;96117.28;5003718;28;20057;-62
2022/04/07 03:27:13;;;;;;;11.50;6.90;;;;;;;5.73;85.08;96115.13;5004233;28;20050;-62
2022/04/07 03:29:40;;;;;;;9.82;6.50;;;;;;;5.78;84.79;96101.91;5003516;28;20065;-62
2022/04/07 03:32:07;;;;;;;17.33;6.90;;;;;;;5.28;85.00;96043.56;5003760;28;20389;-62
2022/04/07 03:34:34;;;;;;;13.10;6.28;;;;;;;5.87;84.63;96098.94;5003330;28;20062;-57
2022/04/07 03:37:01;;;;;;;11.95;7.07;;;;;;;5.90;82.71;96073.47;5003280;28;20624;-57
2022/04/07 03:39:31;;;;;;;15.00;6.78;;;;;;;5.22;85.60;96066.94;5001930;28;20063;-59
2022/04/07 03:41:58;;;;;;;12.85;7.25;;;;;;;5.04;85.61;96032.84;5003681;28;20053;-63
2022/04/07 03:44:25;;;;;;;12.35;6.78;;;;;;;5.40;83.98;96057.94;5003546;28;20058;-63
2022/04/07 03:46:52;;;;;;;16.50;7.70;;;;;;;4.94;84.61;96049.88;5004201;28;20060;-63
2022/04/07 03:49:20;;;;;;;13.98;8.05;;;;;;;4.57;86.47;95998.13;5003643;28;20054;-60
2022/04/07 03:51:47;;;;;;;13.05;6.95;;;;;;;5.12;85.55;96056.56;5005024;28;20050;-62
2022/04/07 03:54:14;;;;;;;13.35;6.72;;;;;;;5.20;84.49;96052.81;5007199;28;20075;-62
2022/04/07 03:56:41;;;;;;;14.00;7.30;;;;;;;5.28;84.66;96054.56;5007135;28;20436;-62
2022/04/07 03:59:07;;;;;;;15.13;7.28;;;;;;;5.16;88.01;96054.66;5007523;28;20441;-62
2022/04/07 04:01:35;;;;;;;13.15;7.53;;;;;;;4.91;87.59;96006.69;5007082;28;20430;-57
2022/04/07 04:04:02;;;;;;;16.63;8.38;;;;;;;5.43;87.39;96072.91;5006603;28;20073;-64
2022/04/07 04:06:29;;;;;;;17.77;8.93;;;;;;;4.87;86.93;95975.66;5021788;28;20057;-59
2022/04/07 04:08:55;;;;;;;15.73;8.02;;;;;;;5.69;85.77;96059.31;5007279;28;20061;-62
2022/04/07 04:11:22;;;;;;;14.13;7.68;;;;;;;5.72;85.14;96058.59;5007071;28;20054;-63
2022/04/07 04:13:49;;;;;;;11.65;7.18;;;;;;;5.59;83.81;96092.84;5006393;28;20061;-63
2022/04/07 04:16:17;;;;;;;16.63;7.60;;;;;;;5.63;82.97;96066.25;5006458;28;20057;-63
2022/04/07 04:18:44;;;;;;;14.77;8.60;;;;;;;5.25;81.66;95950.97;5011088;28;20053;-60
2022/04/07 04:21:12;;;;;;;13.00;7.63;;;;;;;5.92;81.51;96065.66;5026004;28;20052;-63
2022/04/07 04:23:40;;;;;;;13.35;7.20;;;;;;;5.44;82.25;96011.31;5025138;28;20049;-57
2022/04/07 04:26:07;;;;;;;11.82;7.18;;;;;;;5.02;85.19;96015.94;5026019;28;20058;-63
2022/04/07 04:28:34;;;;;;;24.92;9.00;;;;;;;4.98;87.71;96034.28;5026341;28;20049;-60
2022/04/07 04:31:00;;;;;;;20.48;9.02;;;;;;;5.36;86.27;96028.84;5026414;28;20057;-63
2022/04/07 04:33:27;;;;;;;19.00;8.43;;;;;;;4.41;85.38;95835.63;5026838;28;20064;-57
2022/04/07 04:35:58;;;;;;;12.13;7.50;;;;;;;5.69;85.49;96026.34;5026082;28;20484;-57
2022/04/07 04:38:25;;;;;;;22.63;8.93;;;;;;;5.43;84.47;95968.56;5025680;28;20550;-63
2022/04/07 04:40:51;;;;;;;20.98;9.05;;;;;;;5.27;84.52;95967.84;5024052;28;20505;-62
2022/04/07 04:43:18;;;;;;;17.88;7.47;;;;;;;5.25;86.11;95962.72;5025757;28;20057;-60
2022/04/07 04:45:45;;;;;;;17.38;7.63;;;;;;;5.92;85.02;96018.94;5025997;28;20057;-63
2022/04/07 04:48:12;;;;;;;13.80;7.32;;;;;;;6.10;83.34;96003.59;5026297;28;20085;-62
2022/04/07 04:50:38;;;;;;;10.73;7.13;;;;;;;6.48;81.35;96019.13;5025370;28;20440;-62
2022/04/07 04:53:05;;;;;;;19.75;8.20;;;;;;;6.68;80.23;96018.66;5026021;28;20061;-56
2022/04/07 04:55:32;;;;;;;20.92;9.18;;;;;;;6.88;80.42;96022.88;5024482;28;20057;-59
2022/04/07 04:57:58;;;;;;;29.77;11.98;;;;;;;6.77;80.09;95994.41;5025880;28;20049;-56
2022/04/07 05:00:26;;;;;;;28.33;12.45;;;;;;;6.72;78.97;95958.97;5023771;28;20447;-62
2022/04/07 05:02:53;;;;;;;33.33;15.25;;;;;;;6.94;77.95;95949.84;5025733;28;20493;-56
2022/04/07 05:05:19;;;;;;;27.58;15.02;;;;;;;7.55;77.09;95997.03;5025277;28;20133;-62
2022/04/07 05:07:46;;;;;;;27.58;14.07;;;;;;;7.69;75.93;95997.19;5025583;28;20515;-62
2022/04/07 05:10:13;;;;;;;23.92;12.73;;;;;;;7.76;76.42;95990.16;5025375;28;20057;-57
2022/04/07 05:12:40;;;;;;;26.38;12.90;;;;;;;6.22;77.92;95830.19;5025757;28;20050;-61
2022/04/07 05:15:08;;;;;;;17.80;11.13;;;;;;;6.35;81.97;95911.28;5025686;28;20080;-62
2022/04/07 05:17:34;;;;;;;25.80;12.73;;;;;;;7.08;80.92;95985.81;5025289;28;20052;-57
2022/04/07 05:20:02;;;;;;;21.30;12.50;;;;;;;7.18;80.52;95996.16;5023861;28;20076;-56
2022/04/07 05:22:28;;;;;;;25.60;14.02;;;;;;;7.54;79.06;95987.16;5024823;28;20049;-62
2022/04/07 05:24:55;;;;;;;24.60;13.52;;;;;;;7.50;77.24;95911.97;5024914;28;20045;-62
2022/04/07 05:27:22;;;;;;;24.63;13.10;;;;;;;7.96;75.94;95944.66;5025718;28;20045;-56
2022/04/07 05:29:48;;;;;;;50.33;27.42;;;;;;;8.51;75.19;95984.97;5023554;28;20444;-58
2022/04/07 05:32:15;;;;;;;77.10;41.42;;;;;;;8.88;74.20;95980.13;5025481;28;20065;-61
2022/04/07 05:34:42;;;;;;;30.30;15.65;;;;;;;9.14;73.20;95961.31;5024986;28;20049;-58
2022/04/07 05:37:08;;;;;;;23.48;12.43;;;;;;;9.31;73.14;95968.09;5024667;28;20496;-62
2022/04/07 05:39:35;;;;;;;23.38;12.75;;;;;;;9.35;72.92;95960.63;5024902;28;20464;-62
2022/04/07 05:42:02;;;;;;;19.60;12.20;;;;;;;9.43;71.41;95961.44;5024999;28;20049;-62
2022/04/07 05:44:29;;;;;;;24.23;12.77;;;;;;;9.65;71.45;95960.34;5024814;28;20092;-61
2022/04/07 05:46:55;;;;;;;22.70;12.38;;;;;;;9.77;70.33;95941.41;5023569;28;20882;-62
2022/04/07 05:49:22;;;;;;;23.00;12.52;;;;;;;10.07;68.50;95944.66;5024896;28;20049;-57
2022/04/07 05:51:53;;;;;;;20.98;11.77;;;;;;;10.32;67.66;95941.91;5024644;28;20478;-55
2022/04/07 05:54:20;;;;;;;33.85;18.80;;;;;;;10.30;67.13;95939.53;5024571;28;20143;-55
2022/04/07 05:56:47;;;;;;;31.02;19.05;;;;;;;10.48;66.11;95923.69;5024002;28;20133;-62
2022/04/07 05:59:14;;;;;;;36.40;17.48;;;;;;;10.55;65.36;95896.00;5018525;28;20045;-57
2022/04/07 06:01:40;;;;;;;33.58;17.38;;;;;;;10.68;63.91;95883.31;5006664;28;20504;-58
2022/04/07 06:04:07;;;;;;;27.80;16.73;;;;;;;11.10;63.45;95907.34;5012202;28;20042;-62
2022/04/07 06:06:34;;;;;;;32.97;18.58;;;;;;;11.28;61.96;95904.50;5011407;28;20519;-63
2022/04/07 06:09:00;;;;;;;30.40;16.45;;;;;;;11.01;60.76;95834.94;5017940;28;20472;-62
2022/04/07 06:11:27;;;;;;;29.20;14.70;;;;;;;11.08;59.09;95795.34;5020011;28;20053;-64
2022/04/07 06:13:54;;;;;;;26.08;14.75;;;;;;;11.76;58.68;95869.44;5021560;28;20425;-56
2022/04/07 06:16:21;;;;;;;23.15;13.38;;;;;;;12.14;57.17;95890.53;5004116;28;20123;-56
2022/04/07 06:18:48;;;;;;;23.13;12.77;;;;;;;12.42;56.17;95857.00;5008414;28;20140;-59
2022/04/07 06:21:15;;;;;;;16.27;11.07;;;;;;;12.50;54.46;95879.94;5017772;28;20049;-56
2022/04/07 06:23:42;;;;;;;21.25;10.88;;;;;;;13.06;53.08;95880.16;5020118;28;20406;-59
2022/04/07 06:26:09;;;;;;;17.58;10.63;;;;;;;13.03;53.77;95885.75;5011764;28;20045;-58
2022/04/07 06:28:35;;;;;;;13.40;8.65;;;;;;;12.65;52.62;95882.16;5017163;28;20050;-58
2022/04/07 06:31:02;;;;;;;12.55;8.35;;;;;;;10.59;52.60;95481.47;5006891;28;20046;-62
2022/04/07 06:33:29;;;;;;;16.15;9.07;;;;;;;13.09;52.32;95868.22;5004254;28;20041;-61
2022/04/07 06:36:15;;;;;;;11.85;8.25;;;;;;;12.39;52.71;95846.72;5003922;28;20054;-57
2022/04/07 06:38:42;;;;;;;16.27;8.40;;;;;;;12.18;54.11;95838.56;5003390;28;20532;-61
2022/04/07 06:41:09;;;;;;;16.77;9.32;;;;;;;11.89;55.26;95851.09;5002991;28;20089;-56
2022/04/07 06:43:35;;;;;;;17.25;8.52;;;;;;;11.58;55.12;95818.78;5011944;28;20061;-64
2022/04/07 06:46:02;;;;;;;14.93;8.88;;;;;;;11.68;55.52;95845.69;5017596;28;20119;-58
2022/04/07 06:48:29;;;;;;;12.18;8.07;;;;;;;12.38;53.67;95822.91;5004796;28;20049;-58
2022/04/07 06:50:56;;;;;;;15.15;8.70;;;;;;;12.69;53.27;95805.13;5014678;28;20060;-57
2022/04/07 06:53:22;;;;;;;14.55;8.98;;;;;;;12.16;54.16;95805.66;5016451;28;20049;-62
2022/04/07 06:55:49;;;;;;;13.55;8.20;;;;;;;11.91;56.67;95799.56;5015172;28;20046;-62
2022/04/07 06:58:16;;;;;;;19.33;9.60;;;;;;;11.66;57.60;95792.63;5009622;28;20068;-60
2022/04/07 07:00:46;;;;;;;18.13;9.80;;;;;;;12.13;56.94;95811.25;5015578;28;20049;-57
2022/04/07 07:03:14;;;;;;;17.88;11.20;;;;;;;12.42;55.25;95825.66;5021541;28;20125;-64
2022/04/07 07:05:42;;;;;;;16.02;9.30;;;;;;;12.75;54.95;95809.03;5020692;28;20052;-58
2022/04/07 07:08:14;;;;;;;18.85;10.05;;;;;;;13.02;54.58;95801.59;5015564;28;20048;-66
2022/04/07 07:10:42;;;;;;;15.93;9.40;;;;;;;12.22;53.41;95700.50;5012135;28;20540;-64
2022/04/07 07:13:09;;;;;;;14.20;8.80;;;;;;;12.23;54.13;95788.16;5009674;28;20057;-58
2022/04/07 07:15:35;;;;;;;15.85;8.73;;;;;;;11.27;58.39;95778.97;5022955;28;20156;-56
2022/04/07 07:18:02;;;;;;;16.42;9.75;;;;;;;11.13;59.35;95769.97;5020961;28;20050;-61
2022/04/07 07:20:29;;;;;;;15.70;9.20;;;;;;;11.31;58.76;95770.63;5018003;28;20064;-58
2022/04/07 07:23:02;;;;;;;15.30;7.88;;;;;;;11.33;59.30;95784.88;5003959;28;20125;-59
2022/04/07 07:25:32;;;;;;;19.52;10.77;;;;;;;11.86;57.84;95740.91;5020138;28;20057;-64
2022/04/07 07:28:00;;;;;;;15.88;9.93;;;;;;;12.60;56.53;95779.81;5010296;28;20144;-58
2022/04/07 07:30:28;;;;;;;20.50;9.05;;;;;;;12.23;54.70;95704.88;5009939;28;20053;-63
2022/04/07 07:32:58;;;;;;;14.98;8.13;;;;;;;12.34;54.45;95772.19;5018384;28;20799;-58
2022/04/07 07:35:25;;;;;;;17.98;9.13;;;;;;;11.97;53.61;95625.84;5006840;28;20416;-67
2022/04/07 07:37:54;;;;;;;14.48;8.77;;;;;;;12.88;50.97;95701.66;5006750;28;20069;-63
2022/04/07 07:40:23;;;;;;;15.65;8.57;;;;;;;13.26;51.13;95750.41;5010803;28;20492;-64
2022/04/07 07:42:57;;;;;;;19.15;8.73;;;;;;;13.15;51.16;95760.91;5015747;28;20045;-58
2022/04/07 07:45:24;;;;;;;21.10;9.88;;;;;;;12.77;51.52;95706.56;5011213;28;20148;-61
2022/04/07 07:48:12;;;;;;;15.15;9.20;;;;;;;11.69;51.61;95597.63;5006551;28;20049;-63
2022/04/07 07:50:42;;;;;;;15.82;7.80;;;;;;;8.66;54.09;95249.75;5013901;28;20154;-64
2022/04/07 07:53:16;;;;;;;20.02;9.68;;;;;;;11.92;53.19;95650.47;5019488;28;20631;-56
2022/04/07 07:55:42;;;;;;;16.67;8.75;;;;;;;12.40;53.40;95730.84;5016473;28;20547;-58
2022/04/07 07:58:09;;;;;;;16.20;8.85;;;;;;;12.65;52.48;95793.25;5016629;28;20486;-57
2022/04/07 08:00:36;;;;;;;10.18;6.65;;;;;;;11.85;52.97;95679.13;5021075;28;20072;-60
2022/04/07 08:03:03;;;;;;;16.63;10.15;;;;;;;12.73;52.60;95730.84;5009316;28;20064;-59
2022/04/07 08:05:30;;;;;;;16.17;10.30;;;;;;;12.75;52.27;95720.13;5019777;28;20077;-60
2022/04/07 08:07:57;;;;;;;17.08;7.85;;;;;;;12.47;51.75;95698.22;5021250;28;20053;-71
2022/04/07 08:10:24;;;;;;;18.27;10.43;;;;;;;12.27;52.69;95704.81;5020279;28;20443;-73
2022/04/07 08:12:50;;;;;;;19.83;9.82;;;;;;;12.71;52.34;95702.69;5017382;28;20042;-68
2022/04/07 08:15:17;;;;;;;16.25;8.93;;;;;;;12.71;50.92;95696.38;5011819;28;20140;-65
2022/04/07 08:17:44;;;;;;;14.98;8.45;;;;;;;12.82;51.56;95667.22;5011962;28;20409;-66
2022/04/07 08:20:11;;;;;;;15.88;8.48;;;;;;;13.34;50.82;95651.75;5019103;28;20173;-70
2022/04/07 08:22:38;;;;;;;13.95;7.65;;;;;;;13.38;49.46;95652.50;5012988;28;20041;-58
2022/04/07 08:25:05;;;;;;;13.07;7.35;;;;;;;14.08;48.28;95688.66;5010406;28;20169;-59
2022/04/07 08:27:32;;;;;;;17.42;8.73;;;;;;;14.23;48.06;95696.31;5009543;28;20061;-59
2022/04/07 08:29:58;;;;;;;16.08;8.25;;;;;;;14.65;48.02;95680.81;5023645;28;20064;-67
2022/04/07 08:32:26;;;;;;;15.60;7.75;;;;;;;14.86;47.11;95674.75;5019437;28;20053;-63
2022/04/07 08:34:53;;;;;;;15.23;8.15;;;;;;;15.43;45.44;95655.53;5024265;28;20059;-63
2022/04/07 08:37:20;;;;;;;13.18;8.35;;;;;;;15.64;43.92;95635.50;5022484;28;20492;-59
2022/04/07 08:39:47;;;;;;;19.10;7.97;;;;;;;15.82;43.34;95665.75;5020252;28;20436;-57
2022/04/07 08:42:14;;;;;;;13.57;8.40;;;;;;;15.42;44.27;95605.75;5016587;28;20150;-70
2022/04/07 08:44:41;;;;;;;15.98;8.48;;;;;;;15.23;44.73;95573.13;5012183;28;20059;-59
2022/04/07 08:47:08;;;;;;;14.63;8.45;;;;;;;16.06;43.64;95602.88;5020557;28;20077;-59
2022/04/07 08:49:37;;;;;;;11.85;8.10;;;;;;;16.59;42.74;95602.97;5019782;28;20053;-57
2022/04/07 08:52:05;;;;;;;12.88;8.32;;;;;;;16.75;42.75;95598.50;5024007;28;20571;-57
2022/04/07 08:54:32;;;;;;;11.55;8.20;;;;;;;14.99;44.33;95569.72;5019350;28;20081;-65
2022/04/07 08:56:59;;;;;;;17.15;8.88;;;;;;;14.61;46.63;95582.53;5006947;28;20164;-56
2022/04/07 08:59:31;;;;;;;22.40;9.15;;;;;;;15.32;45.13;95599.19;5022469;28;20605;-57
2022/04/07 09:02:05;;;;;;;12.70;7.28;;;;;;;14.75;44.69;95527.25;5011274;28;20475;-59
2022/04/07 09:04:39;;;;;;;9.63;6.80;;;;;;;10.94;46.14;95102.88;5007045;28;20069;-66
2022/04/07 09:07:07;;;;;;;11.52;8.02;;;;;;;13.68;47.02;95515.25;5028684;28;20056;-65
2022/04/07 09:09:36;;;;;;;15.77;7.85;;;;;;;14.58;47.19;95569.47;5016731;28;20053;-59
2022/04/07 09:12:04;;;;;;;12.43;7.90;;;;;;;14.13;46.95;95501.63;5013444;28;20065;-59
2022/04/07 09:14:35;;;;;;;14.15;8.18;;;;;;;14.45;47.01;95576.91;5019793;28;20075;-63
2022/04/07 09:17:02;;;;;;;13.98;7.43;;;;;;;13.43;47.48;95454.56;5022227;28;20052;-60
2022/04/07 09:19:31;;;;;;;16.05;8.05;;;;;;;13.56;47.79;95530.56;5023157;28;20053;-60
2022/04/07 09:22:12;;;;;;;26.15;11.43;;;;;;;14.05;48.24;95551.09;5016222;28;20056;-57
2022/04/07 09:24:41;;;;;;;19.60;10.50;;;;;;;13.94;48.24;95544.16;5022889;28;20041;-57
2022/04/07 09:27:12;;;;;;;12.38;7.45;;;;;;;14.20;48.11;95535.66;5021207;28;20053;-59
2022/04/07 09:29:44;;;;;;;13.48;7.10;;;;;;;13.82;46.42;95447.38;5015965;28;20188;-59
2022/04/07 09:32:22;;;;;;;11.75;7.13;;;;;;;14.30;45.87;95467.03;5005450;28;20056;-64
2022/04/07 09:34:53;;;;;;;12.10;7.80;;;;;;;14.44;45.62;95491.78;5003607;28;20061;-66
2022/04/07 09:37:22;;;;;;;13.38;7.07;;;;;;;14.71;45.34;95503.50;5004660;28;20129;-69
2022/04/07 09:40:01;;;;;;;15.73;6.18;;;;;;;15.09;43.81;95507.34;5005983;28;20469;-69
2022/04/07 09:42:27;;;;;;;11.18;7.30;;;;;;;15.12;44.07;95506.47;5024529;28;20448;-57
2022/04/07 09:44:57;;;;;;;12.48;8.40;;;;;;;15.31;44.77;95497.19;5018568;28;20053;-56
2022/04/07 09:47:33;;;;;;;16.13;8.05;;;;;;;15.29;44.25;95499.63;5004822;28;20049;-63
2022/04/07 09:50:01;;;;;;;13.05;7.32;;;;;;;15.17;44.20;95492.75;5004529;28;20062;-62
2022/04/07 09:52:29;;;;;;;8.95;6.43;;;;;;;14.88;44.41;95452.09;5012222;28;20455;-57
2022/04/07 09:55:06;;;;;;;14.40;6.80;;;;;;;14.57;44.13;95415.44;5012268;28;20401;-55
2022/04/07 09:57:34;;;;;;;10.98;6.35;;;;;;;14.74;44.89;95497.03;5017315;28;20455;-58
2022/04/07 10:00:04;;;;;;;15.13;8.00;;;;;;;14.47;45.48;95488.13;5015301;28;20085;-62
2022/04/07 10:02:32;;;;;;;8.13;5.90;;;;;;;14.54;44.75;95483.16;5008935;28;20065;-72
2022/04/07 10:05:02;;;;;;;11.32;7.50;;;;;;;14.40;44.20;95410.31;5017546;28;20052;-74
2022/04/07 10:07:29;;;;;;;11.30;7.10;;;;;;;13.96;44.94;95385.88;5017240;28;20057;-71
2022/04/07 10:09:57;;;;;;;11.93;6.60;;;;;;;14.24;45.07;95468.75;4993698;28;20586;-68
2022/04/07 10:12:25;;;;;;;19.92;7.85;;;;;;;14.20;45.17;95451.31;5003701;28;20049;-62
2022/04/07 10:14:53;;;;;;;10.82;7.28;;;;;;;14.37;45.42;95483.59;5014471;28;20054;-71
2022/04/07 10:17:22;;;;;;;12.07;7.75;;;;;;;13.54;45.21;95332.72;5007925;28;20076;-67
2022/04/07 10:20:00;;;;;;;15.10;7.95;;;;;;;14.42;44.33;95405.06;5002977;28;20502;-71
2022/04/07 10:22:41;;;;;;;15.80;9.18;;;;;;;14.77;44.00;95463.53;5016465;28;20442;-63
2022/04/07 10:25:09;;;;;;;15.15;9.15;;;;;;;14.26;44.47;95477.47;5022580;28;20149;-66
2022/04/07 10:27:42;;;;;;;15.07;7.63;;;;;;;13.34;45.14;95373.66;5015895;28;20042;-58
2022/04/07 10:30:13;;;;;;;15.82;8.27;;;;;;;14.64;44.58;95486.91;5013258;28;20127;-67
2022/04/07 10:32:52;;;;;;;11.07;6.70;;;;;;;14.75;43.77;95484.66;5009577;28;20087;-57
2022/04/07 10:35:49;;;;;;;13.35;7.32;;;;;;;14.56;44.65;95479.94;5003910;28;20143;-72
2022/04/07 10:38:35;;;;;;;8.95;5.38;;;;;;;14.49;47.31;95471.78;5005056;28;20483;-57
2022/04/07 10:41:02;;;;;;;13.30;6.18;;;;;;;13.97;47.96;95474.50;5003624;28;20449;-60
2022/04/07 10:43:29;;;;;;;9.80;6.03;;;;;;;13.02;50.96;95384.66;5011389;28;20046;-64
2022/04/07 10:46:02;;;;;;;11.85;6.05;;;;;;;12.82;56.58;95464.38;5014758;28;20084;-67
2022/04/07 10:48:33;;;;;;;17.25;6.95;;;;;;;12.35;60.38;95398.13;5012736;28;20046;-58
2022/04/07 10:51:08;;;;;;;11.30;7.07;;;;;;;12.40;60.35;95459.53;5005213;28;20075;-67
2022/04/07 10:53:41;;;;;;;13.32;7.50;;;;;;;11.77;64.04;95361.38;5005708;28;20578;-58
2022/04/07 10:56:24;;;;;;;13.52;7.47;;;;;;;12.12;60.72;95459.97;5012386;28;20058;-58
2022/04/07 10:58:57;;;;;;;13.13;7.00;;;;;;;11.91;62.16;95422.19;5009245;28;20569;-59
2022/04/07 11:01:32;;;;;;;10.57;6.22;;;;;;;12.10;61.49;95424.31;5005576;28;20049;-58
2022/04/07 11:04:18;;;;;;;12.95;7.43;;;;;;;12.56;61.17;95425.56;5013443;28;20493;-65
2022/04/07 11:07:24;;;;;;;17.45;7.93;;;;;;;13.06;58.18;95413.16;5003244;28;20141;-60
2022/04/07 11:09:53;;;;;;;11.07;6.50;;;;;;;13.65;55.79;95411.19;5009186;28;20141;-65
2022/04/07 11:12:31;;;;;;;14.73;7.82;;;;;;;14.39;57.28;95398.38;5006824;28;20527;-58
2022/04/07 11:15:01;;;;;;;16.42;8.07;;;;;;;14.99;55.15;95396.84;5021597;28;20045;-64
2022/04/07 11:17:47;;;;;;;13.98;7.60;;;;;;;15.65;53.79;95391.41;5009045;28;20049;-61
2022/04/07 11:20:24;;;;;;;16.10;8.98;;;;;;;16.04;53.77;95398.63;5008685;28;20046;-59
2022/04/07 11:23:00;;;;;;;13.88;8.63;;;;;;;16.55;51.56;95369.47;5006248;28;20062;-62
2022/04/07 11:25:30;;;;;;;10.65;8.40;;;;;;;17.18;49.27;95381.28;5003020;28;20555;-64
2022/04/07 11:28:17;;;;;;;12.80;8.90;;;;;;;17.59;48.13;95377.44;5017449;28;20061;-66
2022/04/07 11:30:53;;;;;;;10.45;6.78;;;;;;;15.92;45.81;95045.56;5013098;28;20049;-61
2022/04/07 11:33:26;;;;;;;11.45;7.43;;;;;;;18.46;45.19;95376.06;5013926;28;20076;-62
2022/04/07 11:36:06;;;;;;;11.82;7.38;;;;;;;18.59;43.61;95373.91;5012449;28;20116;-64